createdAt,value
2023-10-05T00:02:12.692Z,92410.50
2023-10-05T00:04:44.335Z,92413.97
2023-10-05T00:07:13.088Z,92416.53
2023-10-05T00:09:44.665Z,92417.56
2023-10-05T00:12:19.477Z,92410.81
2023-10-05T00:14:49.891Z,92413.91
2023-10-05T00:17:26.893Z,92406.59
2023-10-05T00:19:53.724Z,92408.84
2023-10-05T00:22:21.434Z,92403.16
2023-10-05T00:24:49.879Z,92396.16
2023-10-05T00:27:16.775Z,92403.22
2023-10-05T00:29:50.135Z,92400.69
2023-10-05T00:32:17.046Z,92393.13
2023-10-05T00:34:45.876Z,92403.59
2023-10-05T00:37:13.171Z,92404.06
2023-10-05T00:39:41.044Z,92401.41
2023-10-05T00:42:07.686Z,92407.22
2023-10-05T00:44:36.277Z,92400.44
2023-10-05T00:47:07.561Z,92401.53
2023-10-05T00:49:46.788Z,92396.75
2023-10-05T00:52:16.574Z,92402.31
2023-10-05T00:54:52.396Z,92405.72
2023-10-05T00:57:24.432Z,92416.72
2023-10-05T00:59:57.648Z,92407.81
2023-10-05T01:02:24.936Z,92405.72
2023-10-05T01:04:57.956Z,92404.94
2023-10-05T01:07:25.951Z,92409.97
2023-10-05T01:10:00.749Z,92403.66
2023-10-05T01:12:30.978Z,92417.81
2023-10-05T01:15:00.510Z,92409.41
2023-10-05T01:17:29.053Z,92416.25
2023-10-05T01:20:00.238Z,92414.13
2023-10-05T01:22:34.428Z,92405.47
2023-10-05T01:25:06.072Z,92412.84
2023-10-05T01:27:33.513Z,92402.59
2023-10-05T01:30:00.565Z,92401.13
2023-10-05T01:32:27.790Z,92407.88
2023-10-05T01:34:54.954Z,92403.31
2023-10-05T01:37:26.917Z,92400.75
2023-10-05T01:39:53.961Z,92397.91
2023-10-05T01:42:20.926Z,92398.19
2023-10-05T01:44:50.685Z,92407.81
2023-10-05T01:47:18.154Z,92406.03
2023-10-05T01:49:46.229Z,92405.31
2023-10-05T01:52:19.295Z,92415.50
2023-10-05T01:54:46.099Z,92405.56
2023-10-05T01:57:17.189Z,92407.88
2023-10-05T01:59:44.870Z,92410.00
2023-10-05T02:02:12.004Z,92404.00
2023-10-05T02:04:44.459Z,92406.34
2023-10-05T02:07:13.033Z,92401.09
2023-10-05T02:09:39.870Z,92395.34
2023-10-05T02:12:08.256Z,92398.47
2023-10-05T02:14:39.202Z,92383.25
2023-10-05T02:17:07.440Z,92390.56
2023-10-05T02:19:38.179Z,92392.19
2023-10-05T02:22:12.051Z,92386.47
2023-10-05T02:24:42.187Z,92394.03
2023-10-05T02:27:15.821Z,92384.88
2023-10-05T02:29:46.832Z,92383.31
2023-10-05T02:32:16.888Z,92392.16
2023-10-05T02:34:46.701Z,92393.22
2023-10-05T02:37:14.047Z,92397.75
2023-10-05T02:39:41.936Z,92398.47
2023-10-05T02:42:16.553Z,92392.97
2023-10-05T02:44:44.359Z,92399.50
2023-10-05T02:47:15.106Z,92396.66
2023-10-05T02:49:45.420Z,92399.22
2023-10-05T02:52:14.626Z,92404.19
2023-10-05T02:54:41.644Z,92401.03
2023-10-05T02:57:15.869Z,92400.31
2023-10-05T02:59:42.452Z,92398.72
2023-10-05T03:02:09.449Z,92401.88
2023-10-05T03:04:46.578Z,92409.50
2023-10-05T03:07:17.777Z,92409.75
2023-10-05T03:09:45.347Z,92404.50
2023-10-05T03:12:12.494Z,92390.84
2023-10-05T03:14:46.049Z,92395.28
2023-10-05T03:17:20.297Z,92395.56
2023-10-05T03:19:47.163Z,92392.72
2023-10-05T03:22:14.080Z,92400.06
2023-10-05T03:24:46.034Z,92402.16
2023-10-05T03:27:13.238Z,92393.53
2023-10-05T03:29:40.034Z,92399.03
2023-10-05T03:32:09.370Z,92399.31
2023-10-05T03:34:36.945Z,92395.09
2023-10-05T03:37:14.250Z,92396.66
2023-10-05T03:39:59.872Z,92396.41
2023-10-05T03:42:26.708Z,92393.03
2023-10-05T03:45:10.190Z,92382.59
2023-10-05T03:47:39.299Z,92385.94
2023-10-05T03:50:07.550Z,92382.78
2023-10-05T03:52:34.385Z,92382.28
2023-10-05T03:55:10.946Z,92376.78
2023-10-05T03:57:44.243Z,92377.59
2023-10-05T04:00:23.283Z,92381.22
2023-10-05T04:02:58.226Z,92377.59
2023-10-05T04:05:26.128Z,92377.34
2023-10-05T04:07:54.144Z,92377.06
2023-10-05T04:10:46.852Z,92378.09
2023-10-05T04:13:16.197Z,92383.88
2023-10-05T04:15:42.986Z,92382.31
2023-10-05T04:18:16.403Z,92375.53
2023-10-05T04:20:44.720Z,92371.38
2023-10-05T04:23:16.511Z,92373.44
2023-10-05T04:25:45.778Z,92378.13
2023-10-05T04:28:13.052Z,92381.53
2023-10-05T04:30:39.875Z,92380.75
2023-10-05T04:33:06.862Z,92378.41
2023-10-05T04:35:43.374Z,92390.41
2023-10-05T04:38:12.171Z,92396.69
2023-10-05T04:40:40.127Z,92393.03
2023-10-05T04:43:12.491Z,92395.63
2023-10-05T04:45:44.029Z,92400.09
2023-10-05T04:48:13.798Z,92399.56
2023-10-05T04:50:43.854Z,92397.22
2023-10-05T04:53:11.261Z,92416.28
2023-10-05T04:55:44.398Z,92422.56
2023-10-05T04:58:24.961Z,92415.50
2023-10-05T05:01:04.307Z,92420.41
2023-10-05T05:03:49.418Z,92422.00
2023-10-05T05:06:17.142Z,92428.28
2023-10-05T05:08:44.842Z,92432.41
2023-10-05T05:11:19.910Z,92426.16
2023-10-05T05:13:48.002Z,92442.91
2023-10-05T05:16:16.462Z,92441.88
2023-10-05T05:18:43.910Z,92435.09
2023-10-05T05:21:13.914Z,92441.38
2023-10-05T05:23:48.595Z,92451.19
2023-10-05T05:26:15.706Z,92444.41
2023-10-05T05:28:44.919Z,92434.41
2023-10-05T05:31:18.347Z,92438.53
2023-10-05T05:33:45.656Z,92433.72
2023-10-05T05:36:13.600Z,92436.53
2023-10-05T05:38:49.297Z,92454.69
2023-10-05T05:41:28.388Z,92455.75
2023-10-05T05:43:55.160Z,92459.16
2023-10-05T05:46:22.038Z,92444.75
2023-10-05T05:48:53.866Z,92451.91
2023-10-05T05:51:24.732Z,92460.81
2023-10-05T05:53:53.251Z,92469.84
2023-10-05T05:56:29.982Z,92466.22
2023-10-05T05:58:57.110Z,92471.41
2023-10-05T06:01:23.802Z,92472.41
2023-10-05T06:03:51.026Z,92468.59
2023-10-05T06:06:17.972Z,92467.59
2023-10-05T06:08:45.513Z,92469.13
2023-10-05T06:11:13.841Z,92463.88
2023-10-05T06:13:41.798Z,92473.56
2023-10-05T06:16:11.784Z,92471.72
2023-10-05T06:18:38.853Z,92479.94
2023-10-05T06:21:08.467Z,92475.56
2023-10-05T06:23:35.215Z,92477.25
2023-10-05T06:26:02.198Z,92477.91
2023-10-05T06:28:29.122Z,92466.91
2023-10-05T06:30:58.103Z,92472.00
2023-10-05T06:33:26.935Z,92474.50
2023-10-05T06:35:53.818Z,92483.78
2023-10-05T06:38:20.877Z,92479.41
2023-10-05T06:40:47.782Z,92483.69
2023-10-05T06:43:16.411Z,92481.25
2023-10-05T06:45:46.494Z,92482.44
2023-10-05T06:48:15.902Z,92475.41
2023-10-05T06:50:44.494Z,92483.38
2023-10-05T06:53:14.141Z,92478.63
2023-10-05T06:55:41.010Z,92481.19
2023-10-05T06:58:08.730Z,92477.78
2023-10-05T07:00:35.534Z,92470.09
2023-10-05T07:03:08.253Z,92480.53
2023-10-05T07:05:35.165Z,92473.59
2023-10-05T07:08:02.061Z,92473.16
2023-10-05T07:10:29.274Z,92473.94
2023-10-05T07:12:56.062Z,92473.16
2023-10-05T07:15:22.854Z,92472.41
2023-10-05T07:17:52.450Z,92468.97
2023-10-05T07:20:20.055Z,92473.44
2023-10-05T07:22:47.567Z,92473.78
2023-10-05T07:25:15.771Z,92470.09
2023-10-05T07:27:46.569Z,92474.84
2023-10-05T07:30:13.963Z,92474.66
2023-10-05T07:32:41.759Z,92465.78
2023-10-05T07:35:09.207Z,92469.94
2023-10-05T07:37:37.253Z,92461.97
2023-10-05T07:40:15.018Z,92468.81
2023-10-05T07:42:42.308Z,92464.31
2023-10-05T07:45:09.450Z,92465.31
2023-10-05T07:47:45.893Z,92465.28
2023-10-05T07:50:12.904Z,92463.00
2023-10-05T07:52:41.195Z,92462.31
2023-10-05T07:55:09.398Z,92457.19
2023-10-05T07:57:36.154Z,92457.63
2023-10-05T08:00:04.669Z,92453.41
2023-10-05T08:02:31.701Z,92452.13
2023-10-05T08:04:58.561Z,92450.00
2023-10-05T08:07:25.338Z,92445.34
2023-10-05T08:09:52.093Z,92443.88
2023-10-05T08:12:19.356Z,92443.06
2023-10-05T08:14:46.201Z,92441.31
2023-10-05T08:17:13.689Z,92446.34
2023-10-05T08:19:40.545Z,92447.63
2023-10-05T08:22:07.571Z,92440.22
2023-10-05T08:24:35.440Z,92431.88
2023-10-05T08:27:03.363Z,92442.78
2023-10-05T08:29:30.994Z,92429.44
2023-10-05T08:31:58.388Z,92434.00
2023-10-05T08:34:26.448Z,92431.13
2023-10-05T08:36:56.420Z,92431.41
2023-10-05T08:39:26.884Z,92428.91
2023-10-05T08:42:04.117Z,92433.88
2023-10-05T08:44:32.156Z,92426.16
2023-10-05T08:46:59.464Z,92426.66
2023-10-05T08:49:28.741Z,92425.53
2023-10-05T08:52:04.359Z,92423.09
2023-10-05T08:54:34.540Z,92425.31
2023-10-05T08:57:10.393Z,92421.31
2023-10-05T08:59:47.138Z,92412.34
2023-10-05T09:02:20.059Z,92416.97
2023-10-05T09:05:01.976Z,92413.25
2023-10-05T09:07:31.160Z,92417.22
2023-10-05T09:09:58.309Z,92407.16
2023-10-05T09:12:44.134Z,92413.72
2023-10-05T09:15:22.757Z,92412.69
2023-10-05T09:18:07.512Z,92404.41
2023-10-05T09:20:37.651Z,92397.47
2023-10-05T09:23:09.409Z,92402.91
2023-10-05T09:25:41.908Z,92393.28
2023-10-05T09:28:15.765Z,92399.78
2023-10-05T09:30:57.053Z,92398.97
2023-10-05T09:33:26.918Z,92395.94
2023-10-05T09:36:06.699Z,92397.22
2023-10-05T09:38:42.385Z,92393.50
2023-10-05T09:41:09.520Z,92386.97
2023-10-05T09:43:40.091Z,92386.69
2023-10-05T09:46:11.590Z,92393.69
2023-10-05T09:48:39.900Z,92394.06
2023-10-05T09:51:15.315Z,92380.91
2023-10-05T09:53:45.205Z,92383.63
2023-10-05T09:56:19.192Z,92386.25
2023-10-05T09:58:51.700Z,92372.25
2023-10-05T10:01:24.216Z,92380.13
2023-10-05T10:03:53.349Z,92376.53
2023-10-05T10:06:21.226Z,92375.84
2023-10-05T10:08:52.508Z,92367.88
2023-10-05T10:11:19.870Z,92366.94
2023-10-05T10:14:02.428Z,92360.28
2023-10-05T10:16:30.147Z,92353.28
2023-10-05T10:19:07.662Z,92351.38
2023-10-05T10:21:37.446Z,92346.03
2023-10-05T10:24:08.265Z,92340.47
2023-10-05T10:26:45.613Z,92332.38
2023-10-05T10:29:17.376Z,92330.22
2023-10-05T10:31:45.427Z,92333.31
2023-10-05T10:34:30.555Z,92323.72
2023-10-05T10:36:58.289Z,92326.06
2023-10-05T10:39:32.971Z,92320.53
2023-10-05T10:42:06.116Z,92316.13
2023-10-05T10:44:56.360Z,92314.63
2023-10-05T10:47:28.456Z,92302.38
2023-10-05T10:50:24.410Z,92309.22
2023-10-05T10:52:51.739Z,92292.19
2023-10-05T10:55:21.286Z,92289.78
2023-10-05T10:57:48.638Z,92300.09
2023-10-05T11:00:36.647Z,92297.06
2023-10-05T11:03:13.235Z,92287.28
2023-10-05T11:05:45.635Z,92286.56
2023-10-05T11:08:21.729Z,92275.50
2023-10-05T11:11:11.044Z,92280.28
2023-10-05T11:14:01.531Z,92271.00
2023-10-05T11:16:36.947Z,92277.16
2023-10-05T11:21:48.133Z,92257.94
2023-10-05T11:26:55.982Z,92255.59
2023-10-05T11:29:29.567Z,92258.28
2023-10-05T11:32:07.032Z,92252.06
2023-10-05T11:35:18.046Z,92248.66
2023-10-05T11:37:46.097Z,92246.31
2023-10-05T11:40:25.158Z,92247.03
2023-10-05T11:42:52.271Z,92253.13
2023-10-05T11:45:19.796Z,92256.75
2023-10-05T11:47:54.528Z,92243.94
2023-10-05T11:50:34.131Z,92243.88
2023-10-05T11:53:07.793Z,92244.56
2023-10-05T11:55:36.945Z,92238.50
2023-10-05T11:58:04.125Z,92245.53
2023-10-05T12:00:32.814Z,92242.88
2023-10-05T12:02:59.778Z,92239.03
2023-10-05T12:05:30.111Z,92234.44
2023-10-05T12:08:00.871Z,92233.22
2023-10-05T12:10:27.713Z,92242.38
2023-10-05T12:12:54.642Z,92236.19
2023-10-05T12:15:24.048Z,92232.09
2023-10-05T12:17:51.088Z,92229.06
2023-10-05T12:20:19.499Z,92225.50
2023-10-05T12:22:46.630Z,92225.88
2023-10-05T12:25:16.476Z,92230.88
2023-10-05T12:27:43.502Z,92225.31
2023-10-05T12:30:13.133Z,92230.97
2023-10-05T12:32:40.418Z,92222.91
2023-10-05T12:35:18.180Z,92215.03
2023-10-05T12:37:46.056Z,92206.88
2023-10-05T12:40:27.646Z,92218.25
2023-10-05T12:45:25.429Z,92210.69
2023-10-05T12:47:58.738Z,92211.19
2023-10-05T12:50:31.682Z,92207.25
2023-10-05T12:53:01.683Z,92204.84
2023-10-05T12:55:30.525Z,92198.44
2023-10-05T12:57:58.308Z,92202.28
2023-10-05T13:00:45.820Z,92196.06
2023-10-05T13:03:13.935Z,92185.94
2023-10-05T13:05:44.962Z,92184.41
2023-10-05T13:08:13.085Z,92187.47
2023-10-05T13:10:40.238Z,92185.16
2023-10-05T13:13:19.712Z,92184.78
2023-10-05T13:15:46.827Z,92184.75
2023-10-05T13:18:19.842Z,92182.47
2023-10-05T13:20:55.343Z,92183.25
2023-10-05T13:23:23.438Z,92172.81
2023-10-05T13:25:51.803Z,92186.59
2023-10-05T13:28:27.979Z,92182.44
2023-10-05T13:30:58.556Z,92178.22
2023-10-05T13:33:33.340Z,92177.41
2023-10-05T13:36:00.234Z,92172.06
2023-10-05T13:38:30.275Z,92175.16
2023-10-05T13:41:15.570Z,92173.97
2023-10-05T13:43:42.763Z,92174.75
2023-10-05T13:46:20.396Z,92175.53
2023-10-05T13:48:57.393Z,92175.16
2023-10-05T13:51:24.802Z,92178.22
2023-10-05T13:53:55.929Z,92182.09
2023-10-05T13:56:28.694Z,92180.16
2023-10-05T13:59:03.810Z,92184.00
2023-10-05T14:01:39.848Z,92185.13
2023-10-05T14:04:09.073Z,92181.59
2023-10-05T14:06:37.754Z,92182.22
2023-10-05T14:09:08.320Z,92178.34
2023-10-05T14:11:39.520Z,92178.44
2023-10-05T14:14:07.436Z,92177.25
2023-10-05T14:16:50.608Z,92182.91
2023-10-05T14:19:23.976Z,92184.34
2023-10-05T14:21:54.059Z,92183.53
2023-10-05T14:24:22.315Z,92177.78
2023-10-05T14:26:50.265Z,92175.16
2023-10-05T14:29:18.821Z,92172.03
2023-10-05T14:31:49.309Z,92173.06
2023-10-05T14:34:18.757Z,92172.59
2023-10-05T14:36:46.343Z,92179.53
2023-10-05T14:39:22.710Z,92176.88
2023-10-05T14:41:52.886Z,92160.28
2023-10-05T14:44:19.580Z,92163.28
2023-10-05T14:46:51.022Z,92166.25
2023-10-05T14:49:23.069Z,92167.81
2023-10-05T14:51:51.110Z,92171.56
2023-10-05T14:54:18.856Z,92165.38
2023-10-05T14:56:45.716Z,92169.00
2023-10-05T14:59:13.748Z,92164.84
2023-10-05T15:01:42.099Z,92167.78
2023-10-05T15:04:09.461Z,92160.94
2023-10-05T15:06:36.390Z,92168.97
2023-10-05T15:09:03.911Z,92173.03
2023-10-05T15:11:31.129Z,92176.59
2023-10-05T15:13:59.490Z,92172.09
2023-10-05T15:16:27.848Z,92171.78
2023-10-05T15:18:55.423Z,92173.13
2023-10-05T15:21:22.092Z,92175.50
2023-10-05T15:23:49.015Z,92179.03
2023-10-05T15:26:18.221Z,92170.75
2023-10-05T15:28:45.320Z,92173.56
2023-10-05T15:31:12.408Z,92181.19
2023-10-05T15:33:39.392Z,92181.47
2023-10-05T15:36:06.522Z,92181.09
2023-10-05T15:38:35.313Z,92174.28
2023-10-05T15:41:05.372Z,92178.91
2023-10-05T15:43:32.754Z,92178.47
2023-10-05T15:46:01.536Z,92177.91
2023-10-05T15:48:28.896Z,92176.25
2023-10-05T15:50:56.801Z,92170.13
2023-10-05T15:53:23.503Z,92174.06
2023-10-05T15:55:50.374Z,92175.88
2023-10-05T15:58:17.487Z,92170.03
2023-10-05T16:00:44.394Z,92160.91
2023-10-05T16:03:12.366Z,92168.75
2023-10-05T16:05:40.419Z,92162.44
2023-10-05T16:08:08.160Z,92161.25
2023-10-05T16:10:36.178Z,92165.50
2023-10-05T16:13:08.920Z,92159.56
2023-10-05T16:15:36.302Z,92174.75
2023-10-05T16:18:04.099Z,92165.22
2023-10-05T16:20:32.453Z,92183.56
2023-10-05T16:23:07.052Z,92173.28
2023-10-05T16:25:38.025Z,92179.03
2023-10-05T16:28:07.329Z,92184.28
2023-10-05T16:30:34.268Z,92179.22
2023-10-05T16:33:02.608Z,92176.66
2023-10-05T16:35:29.492Z,92180.66
2023-10-05T16:37:57.502Z,92178.25
2023-10-05T16:40:29.970Z,92194.59
2023-10-05T16:42:58.843Z,92193.84
2023-10-05T16:45:25.888Z,92197.31
2023-10-05T16:47:53.565Z,92192.19
2023-10-05T16:50:21.547Z,92196.06
2023-10-05T16:52:49.359Z,92192.88
2023-10-05T16:55:17.025Z,92198.88
2023-10-05T16:57:46.806Z,92196.06
2023-10-05T17:00:17.951Z,92200.19
2023-10-05T17:02:45.673Z,92199.13
2023-10-05T17:05:17.136Z,92204.44
2023-10-05T17:07:48.157Z,92202.56
2023-10-05T17:10:15.338Z,92211.19
2023-10-05T17:12:42.435Z,92212.28
2023-10-05T17:15:09.448Z,92213.41
2023-10-05T17:17:36.471Z,92213.22
2023-10-05T17:20:03.800Z,92212.47
2023-10-05T17:22:30.539Z,92213.75
2023-10-05T17:24:57.706Z,92220.91
2023-10-05T17:27:25.190Z,92219.78
2023-10-05T17:29:52.471Z,92226.28
2023-10-05T17:32:19.594Z,92222.25
2023-10-05T17:34:53.707Z,92233.94
2023-10-05T17:37:20.989Z,92237.03
2023-10-05T17:39:47.920Z,92247.09
2023-10-05T17:42:14.625Z,92242.13
2023-10-05T17:44:41.672Z,92243.56
2023-10-05T17:47:09.377Z,92245.91
2023-10-05T17:49:40.321Z,92250.09
2023-10-05T17:52:08.731Z,92244.31
2023-10-05T17:54:35.629Z,92245.22
2023-10-05T17:57:03.564Z,92254.59
2023-10-05T17:59:30.383Z,92258.63
2023-10-05T18:01:57.373Z,92249.03
2023-10-05T18:04:25.897Z,92249.38
2023-10-05T18:06:52.724Z,92254.97
2023-10-05T18:09:19.555Z,92258.69
2023-10-05T18:11:47.150Z,92259.31
2023-10-05T18:14:14.051Z,92259.81
2023-10-05T18:16:42.953Z,92254.34
2023-10-05T18:19:12.460Z,92248.34
2023-10-05T18:21:39.347Z,92255.31
2023-10-05T18:24:06.725Z,92251.88
2023-10-05T18:26:33.596Z,92253.59
2023-10-05T18:29:03.316Z,92248.22
2023-10-05T18:31:31.583Z,92248.81
2023-10-05T18:33:58.639Z,92251.13
2023-10-05T18:36:25.809Z,92260.16
2023-10-05T18:38:52.796Z,92259.78
2023-10-05T18:41:21.204Z,92260.13
2023-10-05T18:43:51.558Z,92257.19
2023-10-05T18:46:19.384Z,92258.97
2023-10-05T18:48:46.168Z,92262.69
2023-10-05T18:51:12.853Z,92254.78
2023-10-05T18:53:40.833Z,92262.06
2023-10-05T18:56:08.333Z,92258.94
2023-10-05T18:58:36.640Z,92262.63
2023-10-05T19:01:03.710Z,92262.00
2023-10-05T19:03:30.672Z,92262.41
2023-10-05T19:05:57.525Z,92261.66
2023-10-05T19:08:24.336Z,92259.88
2023-10-05T19:10:51.172Z,92264.25
2023-10-05T19:13:17.837Z,92264.75
2023-10-05T19:15:44.567Z,92263.34
2023-10-05T19:18:11.357Z,92266.84
2023-10-05T19:20:38.118Z,92266.50
2023-10-05T19:23:07.607Z,92265.84
2023-10-05T19:25:34.321Z,92272.34
2023-10-05T19:28:01.208Z,92266.50
2023-10-05T19:30:27.938Z,92270.22
2023-10-05T19:32:54.784Z,92273.75
2023-10-05T19:35:22.390Z,92281.38
2023-10-05T19:37:49.168Z,92280.63
2023-10-05T19:40:15.996Z,92286.94
2023-10-05T19:42:42.966Z,92282.19
2023-10-05T19:45:11.865Z,92284.59
2023-10-05T19:47:38.664Z,92273.47
2023-10-05T19:50:07.122Z,92283.53
2023-10-05T19:52:34.027Z,92287.03
2023-10-05T19:55:00.915Z,92283.41
2023-10-05T19:57:27.573Z,92280.81
2023-10-05T19:59:55.658Z,92283.41
2023-10-05T20:02:22.456Z,92290.00
2023-10-05T20:04:51.946Z,92284.78
2023-10-05T20:07:19.322Z,92288.38
2023-10-05T20:09:46.032Z,92285.75
2023-10-05T20:12:12.960Z,92281.47
2023-10-05T20:14:39.704Z,92282.94
2023-10-05T20:17:06.987Z,92288.50
2023-10-05T20:19:34.332Z,92282.63
2023-10-05T20:22:01.753Z,92281.47
2023-10-05T20:24:28.618Z,92282.84
2023-10-05T20:26:55.493Z,92272.72
2023-10-05T20:29:22.699Z,92276.19
2023-10-05T20:31:49.450Z,92271.53
2023-10-05T20:34:22.942Z,92268.81
2023-10-05T20:36:53.718Z,92261.44
2023-10-05T20:39:23.551Z,92257.38
2023-10-05T20:41:55.318Z,92260.78
2023-10-05T20:44:22.301Z,92254.34
2023-10-05T20:46:49.568Z,92257.44
2023-10-05T20:49:16.280Z,92247.13
2023-10-05T20:51:43.016Z,92251.56
2023-10-05T20:54:10.630Z,92236.84
2023-10-05T20:56:37.410Z,92232.91
2023-10-05T20:59:04.938Z,92240.31
2023-10-05T21:01:31.639Z,92231.72
2023-10-05T21:03:58.409Z,92234.66
2023-10-05T21:06:26.131Z,92231.34
2023-10-05T21:08:53.283Z,92238.88
2023-10-05T21:11:20.046Z,92237.63
2023-10-05T21:13:47.005Z,92227.13
2023-10-05T21:16:13.778Z,92228.00
2023-10-05T21:18:40.638Z,92227.06
2023-10-05T21:21:07.283Z,92223.16
2023-10-05T21:23:33.947Z,92220.59
2023-10-05T21:26:00.666Z,92228.25
2023-10-05T21:28:27.365Z,92229.44
2023-10-05T21:30:55.303Z,92229.03
2023-10-05T21:33:22.145Z,92231.41
2023-10-05T21:35:48.862Z,92228.84
2023-10-05T21:38:15.589Z,92229.50
2023-10-05T21:40:42.388Z,92235.72
2023-10-05T21:43:09.095Z,92229.63
2023-10-05T21:45:35.919Z,92231.94
2023-10-05T21:48:02.755Z,92236.44
2023-10-05T21:50:29.650Z,92243.34
2023-10-05T21:52:56.543Z,92248.91
2023-10-05T21:55:23.390Z,92256.25
2023-10-05T21:57:50.196Z,92253.09
2023-10-05T22:00:49.055Z,92255.72
2023-10-05T22:03:15.727Z,92248.22
2023-10-05T22:05:42.681Z,92247.06
2023-10-05T22:08:09.747Z,92243.78
2023-10-05T22:10:37.325Z,92247.28
2023-10-05T22:13:04.739Z,92250.59
2023-10-05T22:15:32.400Z,92251.03
2023-10-05T22:18:00.624Z,92248.16
2023-10-05T22:20:27.976Z,92245.75
2023-10-05T22:22:57.516Z,92256.50
2023-10-05T22:25:24.381Z,92250.19
2023-10-05T22:27:51.555Z,92241.88
2023-10-05T22:30:18.822Z,92257.28
2023-10-05T22:32:46.341Z,92257.34
2023-10-05T22:35:13.208Z,92251.41
2023-10-05T22:37:40.034Z,92255.44
2023-10-05T22:40:07.322Z,92256.38
2023-10-05T22:42:35.593Z,92250.16
2023-10-05T22:45:02.252Z,92246.84
2023-10-05T22:47:29.107Z,92254.44
2023-10-05T22:49:57.516Z,92256.47
2023-10-05T22:52:25.879Z,92261.44
2023-10-05T22:54:56.442Z,92259.41
2023-10-05T22:57:24.294Z,92253.94
2023-10-05T22:59:51.717Z,92262.28
2023-10-05T23:02:18.654Z,92256.06
2023-10-05T23:04:45.403Z,92260.28
2023-10-05T23:07:12.577Z,92260.63
2023-10-05T23:09:40.196Z,92259.94
2023-10-05T23:12:12.245Z,92256.25
2023-10-05T23:14:39.682Z,92248.03
2023-10-05T23:17:09.304Z,92254.13
2023-10-05T23:19:36.851Z,92243.78
2023-10-05T23:22:04.307Z,92249.72
2023-10-05T23:24:32.033Z,92235.91
2023-10-05T23:27:00.558Z,92244.06
2023-10-05T23:29:30.087Z,92236.84
2023-10-05T23:31:58.237Z,92234.63
2023-10-05T23:34:36.850Z,92237.72
2023-10-05T23:37:09.569Z,92226.53
2023-10-05T23:39:36.613Z,92238.16
2023-10-05T23:42:12.391Z,92234.06
2023-10-05T23:44:42.876Z,92236.66
2023-10-05T23:47:24.110Z,92232.63
2023-10-05T23:49:55.009Z,92237.25
2023-10-05T23:52:22.521Z,92233.19
2023-10-05T23:54:49.284Z,92232.06
2023-10-05T23:57:21.299Z,92229.50
2023-10-05T23:59:48.743Z,92232.91
